Etusivu
METAR-TAF:

METAR-TAF

Lentoasemat :

Childress, Texas, Yhdysvallat

Leveyspiiri: 34-25-39N, Pituuspiiri: 100-17-00W, korkeus merenpinnasta: 595 m

Tämänhetkinen sää

Tämä raportti tehtiin 47 minuuttia sitten, kello 13.53 UTC
Tuuli 6 kn kaakosta
Lämpötila 27°C
Kosteus 66%
Ilmanpaine 1019 hPa
Hajonneita pilviä 11000 ft:n korkeudessa

METAR: KCDS 281353Z AUTO 13006KT BKN110 27/20 A3010 RMK AO2 SLP164 T02720200 $

Aika: 09:40 (14:40 UTC)

Sääennuste

Tämä raportti tehtiin 3 tuntia ja 20 minuuttia sitten, kello 11.20 UTC
Ennuste voimassa 28. päivästä klo 12 UTC - 29. päivään klo 12 UTC
Tuuli 8 kn idästä/kaakosta
Näkyvyys: 10 km
Hajanaisia pilviä 20000 ft:n korkeudessa

TAF: KCDS 281120Z 2812/2912 12008KT P6SM SCT200

Säähavainnot ja -ennusteet yli 4000 lentoasemalta (METAR- ja TAF-raportit).

Käytössä olevat sääasemat on merkitty karttaan keltaisilla ja punaisilla pisteillä.

Aseta hiiri pisteen päälle nähdäksesi sääaseman nimen.

Klikkaa sitten nähdäksesi säähavainnot ja -ennusteet.

Kartan vaihtaminen: klikkaa mustalla rastilla varustettuja vihreitä pisteitä, niin voit zoomata sisään; viivalla varustettua vihreää pistettä, niin voit zoomata ulos tai vihreitä nuolia, niin pääset viereisille kartoille.


METAR-TAF: